createdAt,value
2018-07-14T00:00:36.907Z,23.00
2018-07-14T00:03:05.954Z,23.00
2018-07-14T00:05:34.912Z,23.00
2018-07-14T00:08:03.879Z,22.90
2018-07-14T00:10:32.846Z,22.90
2018-07-14T00:13:01.816Z,22.90
2018-07-14T00:15:30.782Z,22.90
2018-07-14T00:17:59.757Z,22.90
2018-07-14T00:20:28.719Z,22.80
2018-07-14T00:22:57.707Z,22.80
2018-07-14T00:25:31.885Z,22.80
2018-07-14T00:28:00.852Z,22.70
2018-07-14T00:30:29.804Z,22.70
2018-07-14T00:32:58.759Z,22.70
2018-07-14T00:35:28.031Z,22.70
2018-07-14T00:37:56.999Z,22.70
2018-07-14T00:40:25.967Z,22.70
2018-07-14T00:42:54.935Z,22.70
2018-07-14T00:45:23.902Z,22.70
2018-07-14T00:47:52.867Z,22.70
2018-07-14T00:50:21.834Z,22.70
2018-07-14T00:52:51.218Z,22.70
2018-07-14T00:55:20.178Z,22.70
2018-07-14T00:57:49.152Z,22.70
2018-07-14T01:00:18.503Z,22.70
2018-07-14T01:02:47.463Z,22.60
2018-07-14T01:05:16.429Z,22.60
2018-07-14T01:07:45.391Z,22.60
2018-07-14T01:10:14.350Z,22.60
2018-07-14T01:12:43.317Z,22.60
2018-07-14T01:15:12.299Z,22.50
2018-07-14T01:17:41.273Z,22.50
2018-07-14T01:20:16.500Z,22.50
2018-07-14T01:22:45.479Z,22.40
2018-07-14T01:25:14.430Z,22.40
2018-07-14T01:27:43.400Z,22.40
2018-07-14T01:30:12.386Z,22.40
2018-07-14T01:32:41.418Z,22.40
2018-07-14T01:35:10.379Z,22.30
2018-07-14T01:37:39.378Z,22.30
2018-07-14T01:40:08.334Z,22.30
2018-07-14T01:42:37.323Z,22.30
2018-07-14T01:45:06.454Z,22.30
2018-07-14T01:47:35.411Z,22.30
2018-07-14T01:50:04.370Z,22.30
2018-07-14T01:52:33.331Z,22.30
2018-07-14T01:55:02.295Z,22.30
2018-07-14T01:57:31.267Z,22.30
2018-07-14T02:00:00.217Z,22.30
2018-07-14T02:02:29.174Z,22.30
2018-07-14T02:04:58.122Z,22.30
2018-07-14T02:07:27.098Z,22.20
2018-07-14T02:09:56.110Z,22.20
2018-07-14T02:12:25.083Z,22.20
2018-07-14T02:14:54.030Z,22.20
2018-07-14T02:17:22.990Z,22.20
2018-07-14T02:19:51.954Z,22.20
2018-07-14T02:22:20.934Z,22.20
2018-07-14T02:24:49.890Z,22.20
2018-07-14T02:27:18.858Z,22.20
2018-07-14T02:29:47.824Z,22.20
2018-07-14T02:32:16.777Z,22.20
2018-07-14T02:34:45.747Z,22.20
2018-07-14T02:37:14.788Z,22.20
2018-07-14T02:39:44.287Z,22.10
2018-07-14T02:42:13.260Z,22.10
2018-07-14T02:44:42.271Z,22.10
2018-07-14T02:47:11.225Z,22.10
2018-07-14T02:49:40.184Z,22.10
2018-07-14T02:52:09.136Z,22.10
2018-07-14T02:54:38.124Z,22.10
2018-07-14T02:57:07.067Z,22.10
2018-07-14T02:59:36.087Z,22.10
2018-07-14T03:02:04.997Z,22.10
2018-07-14T03:04:33.964Z,22.10
2018-07-14T03:07:02.931Z,22.10
2018-07-14T03:09:32.028Z,22.00
2018-07-14T03:12:00.986Z,22.00
2018-07-14T03:14:29.958Z,22.00
2018-07-14T03:16:58.907Z,22.00
2018-07-14T03:19:28.000Z,22.00
2018-07-14T03:21:56.850Z,21.90
2018-07-14T03:24:25.822Z,21.90
2018-07-14T03:26:54.783Z,21.90
2018-07-14T03:29:23.743Z,21.90
2018-07-14T03:31:52.711Z,21.90
2018-07-14T03:34:21.676Z,21.90
2018-07-14T03:36:50.630Z,21.90
2018-07-14T03:39:19.583Z,21.90
2018-07-14T03:41:48.535Z,21.90
2018-07-14T03:44:17.505Z,21.90
2018-07-14T03:46:46.464Z,21.90
2018-07-14T03:49:15.415Z,21.90
2018-07-14T03:51:44.376Z,21.80
2018-07-14T03:54:13.351Z,21.80
2018-07-14T03:56:42.331Z,21.80
2018-07-14T03:59:14.268Z,21.80
2018-07-14T04:01:43.226Z,21.80
2018-07-14T04:04:12.216Z,21.80
2018-07-14T04:06:41.168Z,21.80
2018-07-14T04:09:10.130Z,21.80
2018-07-14T04:11:39.086Z,21.80
2018-07-14T04:14:08.059Z,21.80
2018-07-14T04:16:37.027Z,21.80
2018-07-14T04:19:05.991Z,21.80
2018-07-14T04:21:34.958Z,21.80
2018-07-14T04:24:03.920Z,21.80
2018-07-14T04:26:32.878Z,21.80
2018-07-14T04:29:01.843Z,21.80
2018-07-14T04:31:30.831Z,21.80
2018-07-14T04:33:59.799Z,21.80
2018-07-14T04:36:28.754Z,21.80
2018-07-14T04:38:57.715Z,21.90
2018-07-14T04:41:26.676Z,21.90
2018-07-14T04:43:55.642Z,21.90
2018-07-14T04:46:24.593Z,21.90
2018-07-14T04:48:53.570Z,21.90
2018-07-14T04:51:22.530Z,21.90
2018-07-14T04:53:51.509Z,21.90
2018-07-14T04:56:20.475Z,22.00
2018-07-14T04:58:49.458Z,22.00
2018-07-14T05:01:18.415Z,22.00
2018-07-14T05:03:47.510Z,22.00
2018-07-14T05:06:16.543Z,22.10
2018-07-14T05:08:45.486Z,22.10
2018-07-14T05:11:14.448Z,22.10
2018-07-14T05:13:43.415Z,22.20
2018-07-14T05:16:12.380Z,22.20
2018-07-14T05:18:41.355Z,22.20
2018-07-14T05:21:10.306Z,22.20
2018-07-14T05:23:39.282Z,22.30
2018-07-14T05:26:08.263Z,22.30
2018-07-14T05:28:37.329Z,22.30
2018-07-14T05:31:06.338Z,22.30
2018-07-14T05:33:35.296Z,22.40
2018-07-14T05:36:04.253Z,22.40
2018-07-14T05:38:33.215Z,22.40
2018-07-14T05:41:02.172Z,22.40
2018-07-14T05:43:31.135Z,22.50
2018-07-14T05:46:00.099Z,22.50
2018-07-14T05:48:29.078Z,22.50
2018-07-14T05:50:58.041Z,22.50
2018-07-14T05:53:27.019Z,22.60
2018-07-14T05:55:56.024Z,22.60
2018-07-14T05:58:24.979Z,22.60
2018-07-14T06:00:53.939Z,22.60
2018-07-14T06:03:22.894Z,22.70
2018-07-14T06:05:51.863Z,22.70
2018-07-14T06:08:20.831Z,22.70
2018-07-14T06:10:49.811Z,22.70
2018-07-14T06:13:18.775Z,22.80
2018-07-14T06:18:16.607Z,22.80
2018-07-14T06:20:45.575Z,22.80
2018-07-14T06:23:14.566Z,22.80
2018-07-14T06:25:43.551Z,22.90
2018-07-14T06:28:12.815Z,22.90
2018-07-14T06:30:41.803Z,22.90
2018-07-14T06:33:10.756Z,23.00
2018-07-14T06:35:39.727Z,23.00
2018-07-14T06:38:08.713Z,23.10
2018-07-14T06:40:37.666Z,23.10
2018-07-14T06:43:06.770Z,23.10
2018-07-14T06:45:36.004Z,23.20
2018-07-14T06:48:05.055Z,23.20
2018-07-14T06:50:34.032Z,23.20
2018-07-14T06:53:03.094Z,23.20
2018-07-14T06:55:32.064Z,23.30
2018-07-14T06:58:01.437Z,23.30
2018-07-14T07:00:30.403Z,23.30
2018-07-14T07:02:59.415Z,23.40
2018-07-14T07:05:28.391Z,23.40
2018-07-14T07:07:57.399Z,23.40
2018-07-14T07:10:26.378Z,23.40
2018-07-14T07:12:55.341Z,23.40
2018-07-14T07:15:24.302Z,23.40
2018-07-14T07:17:53.296Z,23.50
2018-07-14T07:20:22.267Z,23.50
2018-07-14T07:22:51.502Z,23.50
2018-07-14T07:25:20.459Z,23.60
2018-07-14T07:27:49.410Z,23.60
2018-07-14T07:30:18.373Z,23.60
2018-07-14T07:32:47.343Z,23.70
2018-07-14T07:35:16.315Z,23.70
2018-07-14T07:37:45.294Z,23.80
2018-07-14T07:40:14.267Z,23.80
2018-07-14T07:42:43.223Z,23.80
2018-07-14T07:45:12.191Z,23.90
2018-07-14T07:47:41.155Z,23.90
2018-07-14T07:50:10.191Z,24.00
2018-07-14T07:52:39.153Z,24.10
2018-07-14T07:55:08.130Z,24.10
2018-07-14T07:57:37.091Z,24.10
2018-07-14T08:00:06.744Z,24.20
2018-07-14T08:02:35.706Z,24.20
2018-07-14T08:05:04.680Z,24.30
2018-07-14T08:07:33.635Z,24.30
2018-07-14T08:10:02.590Z,24.40
2018-07-14T08:12:31.538Z,24.40
2018-07-14T08:15:00.498Z,24.40
2018-07-14T08:17:29.467Z,24.50
2018-07-14T08:19:58.431Z,24.50
2018-07-14T08:22:27.410Z,24.60
2018-07-14T08:24:56.394Z,24.60
2018-07-14T08:27:25.366Z,24.70
2018-07-14T08:29:54.323Z,24.70
2018-07-14T08:32:23.303Z,24.80
2018-07-14T08:34:52.250Z,24.80
2018-07-14T08:39:49.946Z,24.90
2018-07-14T08:42:18.921Z,24.90
2018-07-14T08:44:47.887Z,25.00
2018-07-14T08:47:16.844Z,25.00
2018-07-14T08:49:45.809Z,25.10
2018-07-14T08:52:14.766Z,25.10
2018-07-14T08:54:43.722Z,25.10
2018-07-14T08:57:12.679Z,25.20
2018-07-14T08:59:41.638Z,25.20
2018-07-14T09:02:10.611Z,25.30
2018-07-14T09:04:39.562Z,25.30
2018-07-14T09:07:08.522Z,25.30
2018-07-14T09:09:37.488Z,25.40
2018-07-14T09:12:06.504Z,25.50
2018-07-14T09:14:35.471Z,25.50
2018-07-14T09:17:04.447Z,25.50
2018-07-14T09:19:33.411Z,25.60
2018-07-14T09:22:02.391Z,25.60
2018-07-14T09:24:31.351Z,25.70
2018-07-14T09:27:00.307Z,25.70
2018-07-14T09:29:29.257Z,25.80
2018-07-14T09:31:58.220Z,25.80
2018-07-14T09:34:27.176Z,25.90
2018-07-14T09:36:56.140Z,25.90
2018-07-14T09:39:25.148Z,25.90
2018-07-14T09:41:54.071Z,26.00
2018-07-14T09:44:23.032Z,26.00
2018-07-14T09:46:52.013Z,26.10
2018-07-14T09:49:20.966Z,26.10
2018-07-14T09:51:49.923Z,26.10
2018-07-14T09:54:18.894Z,26.10
2018-07-14T09:56:47.874Z,26.10
2018-07-14T09:59:16.832Z,26.10
2018-07-14T10:01:45.795Z,26.20
2018-07-14T10:04:14.759Z,26.20
2018-07-14T10:06:43.745Z,26.30
2018-07-14T10:09:12.728Z,26.30
2018-07-14T10:11:41.691Z,26.30
2018-07-14T10:14:10.644Z,26.30
2018-07-14T10:19:08.333Z,26.40
2018-07-14T10:21:37.324Z,26.50
2018-07-14T10:24:06.417Z,26.50
2018-07-14T10:26:35.378Z,26.60
2018-07-14T10:29:04.408Z,26.60
2018-07-14T10:31:33.283Z,26.70
2018-07-14T10:34:02.319Z,26.70
2018-07-14T10:36:31.210Z,26.80
2018-07-14T10:39:00.171Z,26.90
2018-07-14T10:41:29.127Z,26.90
2018-07-14T10:43:58.821Z,27.00
2018-07-14T10:46:27.791Z,27.00
2018-07-14T10:48:56.750Z,27.10
2018-07-14T10:51:25.773Z,27.20
2018-07-14T10:53:54.674Z,27.20
2018-07-14T10:56:23.636Z,27.30
2018-07-14T10:58:52.596Z,27.40
2018-07-14T11:01:21.670Z,27.40
2018-07-14T11:03:50.632Z,27.50
2018-07-14T11:06:19.585Z,27.50
2018-07-14T11:08:48.584Z,27.60
2018-07-14T11:11:17.542Z,27.60
2018-07-14T11:13:46.539Z,27.60
2018-07-14T11:16:15.493Z,27.60
2018-07-14T11:18:44.511Z,27.70
2018-07-14T11:21:14.171Z,27.70
2018-07-14T11:23:43.209Z,27.70
2018-07-14T11:26:12.195Z,27.80
2018-07-14T11:28:41.155Z,27.70
2018-07-14T11:31:10.126Z,27.70
2018-07-14T11:33:39.103Z,27.70
2018-07-14T11:36:08.122Z,27.70
2018-07-14T11:38:37.091Z,27.70
2018-07-14T11:41:06.291Z,27.70
2018-07-14T11:43:35.246Z,27.70
2018-07-14T11:46:04.269Z,27.70
2018-07-14T11:48:33.227Z,27.70
2018-07-14T11:51:02.211Z,27.70
2018-07-14T11:53:31.284Z,27.70
2018-07-14T11:56:00.261Z,27.70
2018-07-14T11:58:29.251Z,27.60
2018-07-14T12:00:58.199Z,27.70
2018-07-14T12:03:27.174Z,27.60
2018-07-14T12:05:56.137Z,27.60
2018-07-14T12:08:25.097Z,27.60
2018-07-14T12:10:54.063Z,27.60
2018-07-14T12:13:23.046Z,27.70
2018-07-14T12:15:51.986Z,27.70
2018-07-14T12:18:20.975Z,27.70
2018-07-14T12:20:49.945Z,27.70
2018-07-14T12:23:18.918Z,27.70
2018-07-14T12:25:47.872Z,27.70
2018-07-14T12:28:16.867Z,27.70
2018-07-14T12:30:46.246Z,27.70
2018-07-14T12:33:15.207Z,27.80
2018-07-14T12:35:44.163Z,27.80
2018-07-14T12:38:13.122Z,27.80
2018-07-14T12:40:42.075Z,27.80
2018-07-14T12:43:11.051Z,27.80
2018-07-14T12:45:39.998Z,27.80
2018-07-14T12:48:08.991Z,27.80
2018-07-14T12:50:37.953Z,27.80
2018-07-14T12:53:06.926Z,27.80
2018-07-14T12:55:35.881Z,27.80
2018-07-14T12:58:04.858Z,27.80
2018-07-14T13:00:33.803Z,27.90
2018-07-14T13:03:02.767Z,27.90
2018-07-14T13:05:31.718Z,27.90
2018-07-14T13:08:00.678Z,27.90
2018-07-14T13:10:29.635Z,27.90
2018-07-14T13:12:58.603Z,27.90
2018-07-14T13:15:28.118Z,27.90
2018-07-14T13:20:26.497Z,27.90
2018-07-14T13:22:55.559Z,27.90
2018-07-14T13:25:24.905Z,27.90
2018-07-14T13:27:53.860Z,27.90
2018-07-14T13:30:24.062Z,27.90
2018-07-14T13:32:53.136Z,27.90
2018-07-14T13:35:22.237Z,27.90
2018-07-14T13:37:51.165Z,27.90
2018-07-14T13:40:20.130Z,28.00
2018-07-14T13:42:49.082Z,28.00
2018-07-14T13:45:18.192Z,28.00
2018-07-14T13:47:47.347Z,28.00
2018-07-14T13:50:16.395Z,28.00
2018-07-14T13:52:45.355Z,28.10
2018-07-14T13:55:14.307Z,28.10
2018-07-14T13:57:43.264Z,28.10
2018-07-14T14:00:12.357Z,28.10
2018-07-14T14:02:41.327Z,28.10
2018-07-14T14:05:10.288Z,28.20
2018-07-14T14:07:39.310Z,28.20
2018-07-14T14:10:08.276Z,28.20
2018-07-14T14:12:37.247Z,28.30
2018-07-14T14:15:06.803Z,28.30
2018-07-14T14:17:35.751Z,28.30
2018-07-14T14:20:05.272Z,28.40
2018-07-14T14:22:34.239Z,28.40
2018-07-14T14:25:03.247Z,28.40
2018-07-14T14:27:32.271Z,28.40
2018-07-14T14:30:01.233Z,28.40
2018-07-14T14:32:30.266Z,28.40
2018-07-14T14:34:59.231Z,28.40
2018-07-14T14:37:28.292Z,28.40
2018-07-14T14:39:58.279Z,28.40
2018-07-14T14:42:27.244Z,28.40
2018-07-14T14:44:56.210Z,28.40
2018-07-14T14:47:25.314Z,28.40
2018-07-14T14:49:54.390Z,28.40
2018-07-14T14:52:23.360Z,28.40
2018-07-14T14:54:52.432Z,28.40
2018-07-14T14:57:21.475Z,28.40
2018-07-14T14:59:50.478Z,28.40
2018-07-14T15:02:19.459Z,28.40
2018-07-14T15:04:48.455Z,28.40
2018-07-14T15:07:17.559Z,28.50
2018-07-14T15:09:46.556Z,28.50
2018-07-14T15:12:15.522Z,28.60
2018-07-14T15:14:44.474Z,28.60
2018-07-14T15:17:13.474Z,28.70
2018-07-14T15:19:42.422Z,28.70
2018-07-14T15:22:11.403Z,28.80
2018-07-14T15:24:40.355Z,28.80
2018-07-14T15:27:09.319Z,28.80
2018-07-14T15:29:38.262Z,28.80
2018-07-14T15:32:07.290Z,28.70
2018-07-14T15:34:36.185Z,28.70
2018-07-14T15:37:05.187Z,28.70
2018-07-14T15:39:34.139Z,28.70
2018-07-14T15:42:03.103Z,28.70
2018-07-14T15:44:32.060Z,28.60
2018-07-14T15:47:01.024Z,28.60
2018-07-14T15:49:29.979Z,28.60
2018-07-14T15:51:58.936Z,28.60
2018-07-14T15:54:27.904Z,28.60
2018-07-14T15:56:58.922Z,28.60
2018-07-14T15:59:27.876Z,28.60
2018-07-14T16:01:56.948Z,28.60
2018-07-14T16:04:26.667Z,28.60
2018-07-14T16:06:56.031Z,28.60
2018-07-14T16:09:24.978Z,28.60
2018-07-14T16:11:53.943Z,28.60
2018-07-14T16:14:22.898Z,28.60
2018-07-14T16:16:52.755Z,28.50
2018-07-14T16:19:24.127Z,28.50
2018-07-14T16:21:53.224Z,28.50
2018-07-14T16:24:22.179Z,28.50
2018-07-14T16:29:20.495Z,28.50
2018-07-14T16:31:50.147Z,28.50
2018-07-14T16:34:19.115Z,28.50
2018-07-14T16:36:48.160Z,28.50
2018-07-14T16:39:17.555Z,28.50
2018-07-14T16:41:50.942Z,28.50
2018-07-14T16:44:19.922Z,28.50
2018-07-14T16:46:48.908Z,28.50
2018-07-14T16:49:17.991Z,28.50
2018-07-14T16:51:47.010Z,28.40
2018-07-14T16:54:15.974Z,28.40
2018-07-14T16:56:45.028Z,28.40
2018-07-14T16:59:13.993Z,28.40
2018-07-14T17:01:43.022Z,28.40
2018-07-14T17:04:13.053Z,28.40
2018-07-14T17:06:44.698Z,28.40
2018-07-14T17:09:13.714Z,28.40
2018-07-14T17:11:42.698Z,28.40
2018-07-14T17:14:11.792Z,28.40
2018-07-14T17:16:40.660Z,28.30
2018-07-14T17:19:09.647Z,28.30
2018-07-14T17:21:38.640Z,28.30
2018-07-14T17:24:07.722Z,28.30
2018-07-14T17:26:36.738Z,28.30
2018-07-14T17:29:05.728Z,28.20
2018-07-14T17:31:34.717Z,28.20
2018-07-14T17:34:03.685Z,28.20
2018-07-14T17:36:32.681Z,28.20
2018-07-14T17:39:01.656Z,28.20
2018-07-14T17:41:30.643Z,28.20
2018-07-14T17:43:59.689Z,28.20
2018-07-14T17:46:28.595Z,28.20
2018-07-14T17:48:57.690Z,28.10
2018-07-14T17:51:26.709Z,28.10
2018-07-14T17:53:55.687Z,28.20
2018-07-14T17:56:24.780Z,28.10
2018-07-14T17:58:53.920Z,28.10
2018-07-14T18:01:22.729Z,28.10
2018-07-14T18:03:51.734Z,28.10
2018-07-14T18:06:20.707Z,28.10
2018-07-14T18:08:49.758Z,28.10
2018-07-14T18:11:18.839Z,28.10
2018-07-14T18:13:47.814Z,28.00
2018-07-14T18:16:16.790Z,28.00
2018-07-14T18:18:45.951Z,28.00
2018-07-14T18:21:15.052Z,28.00
2018-07-14T18:23:44.018Z,27.90
2018-07-14T18:26:13.013Z,28.00
2018-07-14T18:28:42.257Z,27.90
2018-07-14T18:31:11.216Z,27.90
2018-07-14T18:33:40.182Z,27.90
2018-07-14T18:36:09.167Z,27.80
2018-07-14T18:38:38.096Z,27.80
2018-07-14T18:41:07.054Z,27.80
2018-07-14T18:43:36.015Z,27.80
2018-07-14T18:46:04.980Z,27.80
2018-07-14T18:48:33.934Z,27.80
2018-07-14T18:51:02.932Z,27.70
2018-07-14T18:53:31.924Z,27.70
2018-07-14T18:58:30.034Z,27.60
2018-07-14T19:00:58.993Z,27.60
2018-07-14T19:03:27.999Z,27.50
2018-07-14T19:05:56.955Z,27.50
2018-07-14T19:08:25.926Z,27.40
2018-07-14T19:10:54.966Z,27.40
2018-07-14T19:13:23.920Z,27.30
2018-07-14T19:15:52.882Z,27.30
2018-07-14T19:18:21.847Z,27.30
2018-07-14T19:20:50.794Z,27.20
2018-07-14T19:23:19.839Z,27.20
2018-07-14T19:25:48.805Z,27.10
2018-07-14T19:28:18.120Z,27.10
2018-07-14T19:30:47.186Z,27.00
2018-07-14T19:33:16.108Z,27.00
2018-07-14T19:35:45.083Z,27.00
2018-07-14T19:38:14.051Z,26.90
2018-07-14T19:40:43.038Z,26.90
2018-07-14T19:43:12.010Z,26.90
2018-07-14T19:45:41.025Z,26.80
2018-07-14T19:48:10.001Z,26.80
2018-07-14T19:50:38.994Z,26.80
2018-07-14T19:53:07.950Z,26.70
2018-07-14T19:55:36.938Z,26.70
2018-07-14T19:58:06.074Z,26.60
2018-07-14T20:00:35.057Z,26.60
2018-07-14T20:03:04.047Z,26.60
2018-07-14T20:05:33.038Z,26.50
2018-07-14T20:08:02.006Z,26.50
2018-07-14T20:10:30.987Z,26.40
2018-07-14T20:12:59.962Z,26.40
2018-07-14T20:15:28.948Z,26.30
2018-07-14T20:17:57.922Z,26.30
2018-07-14T20:20:26.940Z,26.20
2018-07-14T20:22:55.902Z,26.20
2018-07-14T20:25:24.868Z,26.20
2018-07-14T20:27:53.825Z,26.10
2018-07-14T20:30:22.782Z,26.10
2018-07-14T20:32:51.747Z,26.10
2018-07-14T20:35:20.752Z,26.10
2018-07-14T20:37:49.726Z,26.10
2018-07-14T20:40:18.790Z,26.00
2018-07-14T20:42:47.816Z,26.00
2018-07-14T20:45:16.779Z,26.00
2018-07-14T20:47:45.771Z,25.90
2018-07-14T20:50:14.822Z,25.90
2018-07-14T20:52:43.799Z,25.80
2018-07-14T20:55:12.771Z,25.80
2018-07-14T20:57:41.722Z,25.70
2018-07-14T21:00:10.684Z,25.70
2018-07-14T21:02:39.646Z,25.70
2018-07-14T21:05:08.607Z,25.60
2018-07-14T21:07:37.572Z,25.60
2018-07-14T21:10:06.544Z,25.50
2018-07-14T21:12:35.611Z,25.50
2018-07-14T21:15:04.740Z,25.50
2018-07-14T21:17:33.967Z,25.40
2018-07-14T21:20:03.356Z,25.30
2018-07-14T21:22:32.396Z,25.30
2018-07-14T21:25:01.455Z,25.30
2018-07-14T21:27:30.808Z,25.20
2018-07-14T21:29:59.809Z,25.20
2018-07-14T21:32:28.806Z,25.20
2018-07-14T21:34:57.799Z,25.10
2018-07-14T21:37:26.775Z,25.10
2018-07-14T21:39:55.762Z,25.00
2018-07-14T21:42:24.799Z,25.00
2018-07-14T21:44:53.799Z,25.00
2018-07-14T21:47:22.792Z,25.00
2018-07-14T21:49:51.791Z,24.90
2018-07-14T21:52:20.767Z,24.90
2018-07-14T21:54:49.742Z,24.90
2018-07-14T21:57:18.752Z,24.90
2018-07-14T21:59:47.718Z,24.80
2018-07-14T22:02:16.736Z,24.80
2018-07-14T22:04:45.723Z,24.80
2018-07-14T22:07:14.723Z,24.70
2018-07-14T22:09:43.694Z,24.70
2018-07-14T22:12:12.705Z,24.70
2018-07-14T22:14:41.660Z,24.70
2018-07-14T22:17:10.655Z,24.60
2018-07-14T22:19:39.636Z,24.60
2018-07-14T22:22:08.611Z,24.60
2018-07-14T22:24:37.558Z,24.50
2018-07-14T22:27:06.554Z,24.50
2018-07-14T22:29:35.509Z,24.50
2018-07-14T22:32:04.466Z,24.40
2018-07-14T22:34:33.414Z,24.40
2018-07-14T22:37:02.377Z,24.40
2018-07-14T22:39:31.372Z,24.30
2018-07-14T22:42:00.330Z,24.30
2018-07-14T22:44:29.291Z,24.30
2018-07-14T22:46:58.250Z,24.30
2018-07-14T22:49:27.208Z,24.30
2018-07-14T22:51:56.167Z,24.20
2018-07-14T22:54:25.132Z,24.20
2018-07-14T22:56:54.093Z,24.20
2018-07-14T22:59:23.053Z,24.20
2018-07-14T23:01:52.020Z,24.20
2018-07-14T23:04:20.972Z,24.10
2018-07-14T23:06:49.980Z,24.10
2018-07-14T23:09:19.218Z,24.10
2018-07-14T23:11:48.180Z,24.10
2018-07-14T23:14:17.127Z,24.10
2018-07-14T23:16:46.090Z,24.00
2018-07-14T23:19:15.036Z,24.00
2018-07-14T23:21:44.002Z,24.00
2018-07-14T23:24:12.998Z,23.90
2018-07-14T23:26:41.969Z,23.90
2018-07-14T23:29:10.947Z,23.90
2018-07-14T23:31:39.978Z,23.90
2018-07-14T23:34:08.966Z,23.90
2018-07-14T23:36:37.973Z,23.90
2018-07-14T23:39:08.386Z,23.80
2018-07-14T23:41:38.181Z,23.80
2018-07-14T23:44:07.174Z,23.80
2018-07-14T23:46:36.290Z,23.80
2018-07-14T23:49:05.339Z,23.80
2018-07-14T23:51:34.335Z,23.70
2018-07-14T23:54:03.306Z,23.70
2018-07-14T23:56:32.319Z,23.70
2018-07-14T23:59:01.286Z,23.70
